createdAt,value
2019-04-11T00:01:50.967Z,-0.30
2019-04-11T00:04:24.131Z,-0.30
2019-04-11T00:06:58.400Z,-0.30
2019-04-11T00:09:34.210Z,-0.40
2019-04-11T00:12:10.944Z,-0.40
2019-04-11T00:14:46.579Z,-0.40
2019-04-11T00:17:20.318Z,-0.40
2019-04-11T00:19:54.270Z,-0.40
2019-04-11T00:22:29.808Z,-0.40
2019-04-11T00:25:03.220Z,-0.40
2019-04-11T00:27:43.433Z,-0.40
2019-04-11T00:30:21.964Z,-0.40
2019-04-11T00:32:58.061Z,-0.30
2019-04-11T00:35:31.921Z,-0.40
2019-04-11T00:38:06.371Z,-0.40
2019-04-11T00:40:42.243Z,-0.50
2019-04-11T00:43:30.446Z,-0.50
2019-04-11T00:45:56.695Z,-0.40
2019-04-11T00:48:30.399Z,-0.40
2019-04-11T00:51:04.624Z,-0.50
2019-04-11T00:53:38.352Z,-0.50
2019-04-11T00:56:15.751Z,-0.50
2019-04-11T00:59:07.944Z,-0.50
2019-04-11T01:01:41.442Z,-0.60
2019-04-11T01:04:14.177Z,-0.60
2019-04-11T01:06:52.430Z,-0.60
2019-04-11T01:09:28.385Z,-0.70
2019-04-11T01:12:03.124Z,-0.70
2019-04-11T01:14:37.267Z,-0.70
2019-04-11T01:17:09.430Z,-0.70
2019-04-11T01:19:45.391Z,-0.70
2019-04-11T01:22:20.217Z,-0.80
2019-04-11T01:24:58.035Z,-0.80
2019-04-11T01:27:32.008Z,-0.80
2019-04-11T01:30:06.175Z,-0.80
2019-04-11T01:32:38.448Z,-0.80
2019-04-11T01:35:13.554Z,-0.90
2019-04-11T01:37:50.213Z,-0.90
2019-04-11T01:40:25.539Z,-0.90
2019-04-11T01:43:01.835Z,-0.90
2019-04-11T01:45:36.200Z,-1.00
2019-04-11T01:48:33.865Z,-1.00
2019-04-11T01:51:07.421Z,-1.00
2019-04-11T01:53:40.542Z,-1.00
2019-04-11T01:56:16.807Z,-1.00
2019-04-11T01:58:53.649Z,-0.90
2019-04-11T02:01:39.615Z,-0.90
2019-04-11T02:04:25.279Z,-1.00
2019-04-11T02:06:58.433Z,-1.00
2019-04-11T02:09:28.799Z,-0.90
2019-04-11T02:11:58.465Z,-0.90
2019-04-11T02:14:31.312Z,-0.90
2019-04-11T02:17:06.479Z,-0.90
2019-04-11T02:19:40.538Z,-0.90
2019-04-11T02:22:28.563Z,-0.90
2019-04-11T02:25:24.832Z,-0.80
2019-04-11T02:28:01.186Z,-0.80
2019-04-11T02:30:39.185Z,-0.90
2019-04-11T02:33:11.716Z,-0.80
2019-04-11T02:35:49.048Z,-0.80
2019-04-11T02:38:21.401Z,-0.80
2019-04-11T02:40:57.471Z,-0.80
2019-04-11T02:43:34.183Z,-0.70
2019-04-11T02:46:17.093Z,-0.70
2019-04-11T02:48:42.711Z,-0.70
2019-04-11T02:51:15.924Z,-0.70
2019-04-11T02:53:49.554Z,-0.70
2019-04-11T02:56:23.909Z,-0.70
2019-04-11T02:59:02.116Z,-0.70
2019-04-11T03:01:36.910Z,-0.60
2019-04-11T03:04:10.580Z,-0.60
2019-04-11T03:06:45.872Z,-0.60
2019-04-11T03:09:19.734Z,-0.60
2019-04-11T03:11:54.829Z,-0.50
2019-04-11T03:14:44.843Z,-0.50
2019-04-11T03:17:12.933Z,-0.50
2019-04-11T03:19:54.726Z,-0.50
2019-04-11T03:22:16.102Z,-0.50
2019-04-11T03:24:53.474Z,-0.50
2019-04-11T03:27:30.558Z,-0.50
2019-04-11T03:30:10.893Z,-0.50
2019-04-11T03:38:20.955Z,-0.50
2019-04-11T03:40:57.696Z,-0.40
2019-04-11T03:43:28.300Z,-0.40
2019-04-11T03:46:15.880Z,-0.40
2019-04-11T03:48:40.921Z,-0.40
2019-04-11T03:51:03.927Z,-0.40
2019-04-11T03:53:38.331Z,-0.40
2019-04-11T03:56:13.904Z,-0.40
2019-04-11T03:58:50.420Z,-0.40
2019-04-11T04:01:26.704Z,-0.40
2019-04-11T04:04:00.694Z,-0.40
2019-04-11T04:06:37.404Z,-0.40
2019-04-11T04:09:13.179Z,-0.40
2019-04-11T04:11:49.360Z,-0.40
2019-04-11T04:14:49.414Z,-0.40
2019-04-11T04:17:41.412Z,-0.30
2019-04-11T04:20:33.037Z,-0.40
2019-04-11T04:23:16.663Z,-0.40
2019-04-11T04:25:51.672Z,-0.40
2019-04-11T04:28:24.573Z,-0.30
2019-04-11T04:30:58.054Z,-0.30
2019-04-11T04:33:36.224Z,-0.40
2019-04-11T04:36:13.886Z,-0.30
2019-04-11T04:38:48.767Z,-0.30
2019-04-11T04:41:35.163Z,-0.30
2019-04-11T04:43:59.870Z,-0.30
2019-04-11T04:46:47.102Z,-0.20
2019-04-11T04:49:09.029Z,-0.20
2019-04-11T04:51:43.687Z,-0.20
2019-04-11T04:54:19.994Z,-0.20
2019-04-11T04:56:54.711Z,-0.10
2019-04-11T04:59:28.187Z,-0.10
2019-04-11T05:02:03.400Z,0.00
2019-04-11T05:04:40.383Z,0.00
2019-04-11T05:07:13.297Z,0.00
2019-04-11T05:09:45.925Z,0.10
2019-04-11T05:12:20.667Z,0.10
2019-04-11T05:14:55.965Z,0.10
2019-04-11T05:17:29.042Z,0.20
2019-04-11T05:20:03.423Z,0.20
2019-04-11T05:22:47.250Z,0.30
2019-04-11T05:25:26.466Z,0.30
2019-04-11T05:28:02.239Z,0.40
2019-04-11T05:30:39.838Z,0.40
2019-04-11T05:33:13.602Z,0.50
2019-04-11T05:35:50.074Z,0.50
2019-04-11T05:38:27.327Z,0.70
2019-04-11T05:41:04.252Z,0.80
2019-04-11T05:43:40.128Z,0.80
2019-04-11T05:46:29.822Z,0.80
2019-04-11T05:49:05.416Z,0.80
2019-04-11T05:51:42.592Z,0.80
2019-04-11T05:54:14.140Z,0.80
2019-04-11T05:56:54.345Z,0.80
2019-04-11T05:59:25.558Z,0.90
2019-04-11T06:02:07.291Z,0.90
2019-04-11T06:04:45.712Z,1.10
2019-04-11T06:07:35.019Z,1.20
2019-04-11T06:10:13.235Z,1.20
2019-04-11T06:13:07.950Z,1.30
2019-04-11T06:15:44.255Z,1.40
2019-04-11T06:18:32.524Z,1.50
2019-04-11T06:21:05.813Z,1.50
2019-04-11T06:24:07.910Z,1.50
2019-04-11T06:27:00.234Z,1.60
2019-04-11T06:29:56.059Z,1.50
2019-04-11T06:32:48.064Z,1.50
2019-04-11T06:35:33.513Z,1.40
2019-04-11T06:38:24.707Z,1.50
2019-04-11T06:41:08.158Z,1.70
2019-04-11T06:43:56.322Z,1.90
2019-04-11T06:47:02.145Z,2.10
2019-04-11T06:49:47.382Z,2.00
2019-04-11T06:52:20.999Z,2.00
2019-04-11T06:55:28.945Z,2.00
2019-04-11T06:58:11.041Z,1.80
2019-04-11T07:00:49.907Z,1.70
2019-04-11T07:03:29.230Z,1.70
2019-04-11T07:06:05.058Z,1.70
2019-04-11T07:08:47.031Z,1.70
2019-04-11T07:11:23.368Z,1.60
2019-04-11T07:14:31.265Z,1.70
2019-04-11T07:17:23.047Z,1.70
2019-04-11T07:20:13.057Z,1.90
2019-04-11T07:23:02.340Z,2.00
2019-04-11T07:25:56.662Z,2.00
2019-04-11T07:28:39.354Z,2.00
2019-04-11T07:31:29.866Z,1.90
2019-04-11T07:34:31.519Z,1.90
2019-04-11T07:37:16.863Z,2.10
2019-04-11T07:40:27.102Z,2.20
2019-04-11T07:43:19.382Z,2.30
2019-04-11T07:46:27.371Z,2.30
2019-04-11T07:49:03.763Z,2.40
2019-04-11T07:51:53.870Z,2.70
2019-04-11T07:54:28.084Z,2.80
2019-04-11T07:57:19.276Z,2.70
2019-04-11T08:00:00.728Z,2.50
2019-04-11T08:02:50.590Z,2.30
2019-04-11T08:05:41.027Z,1.90
2019-04-11T08:08:39.655Z,1.70
2019-04-11T08:11:15.942Z,1.70
2019-04-11T08:14:24.490Z,2.00
2019-04-11T08:17:32.093Z,2.30
2019-04-11T08:20:26.460Z,2.30
2019-04-11T08:23:05.510Z,2.50
2019-04-11T08:25:55.852Z,2.60
2019-04-11T08:28:28.992Z,2.50
2019-04-11T08:31:21.540Z,2.40
2019-04-11T08:33:57.222Z,2.30
2019-04-11T08:36:47.698Z,2.60
2019-04-11T08:39:31.177Z,2.80
2019-04-11T08:42:40.650Z,3.00
2019-04-11T08:45:14.532Z,3.00
2019-04-11T08:47:56.125Z,3.10
2019-04-11T08:50:31.249Z,3.20
2019-04-11T08:53:20.784Z,3.40
2019-04-11T08:56:03.863Z,3.60
2019-04-11T08:58:47.026Z,3.70
2019-04-11T09:01:20.766Z,3.70
2019-04-11T09:04:28.641Z,3.70
2019-04-11T09:07:03.461Z,3.90
2019-04-11T09:09:53.671Z,3.90
2019-04-11T09:12:26.825Z,3.80
2019-04-11T09:15:16.930Z,3.50
2019-04-11T09:18:03.535Z,3.50
2019-04-11T09:20:49.080Z,3.50
2019-04-11T09:23:24.219Z,3.70
2019-04-11T09:26:35.987Z,3.90
2019-04-11T09:29:10.160Z,4.00
2019-04-11T09:32:11.850Z,3.80
2019-04-11T09:34:55.743Z,3.50
2019-04-11T09:37:39.906Z,3.40
2019-04-11T09:40:31.992Z,3.40
2019-04-11T09:43:15.787Z,3.40
2019-04-11T09:46:00.367Z,3.40
2019-04-11T09:48:56.226Z,3.30
2019-04-11T09:51:45.350Z,3.60
2019-04-11T09:54:42.383Z,3.70
2019-04-11T09:57:26.893Z,3.90
2019-04-11T10:00:28.673Z,4.00
2019-04-11T10:03:17.376Z,4.20
2019-04-11T10:06:09.662Z,4.40
2019-04-11T10:08:44.672Z,4.40
2019-04-11T10:11:34.400Z,4.30
2019-04-11T10:14:09.423Z,4.00
2019-04-11T10:17:03.008Z,3.80
2019-04-11T10:20:00.248Z,3.60
2019-04-11T10:22:52.238Z,3.40
2019-04-11T10:25:49.711Z,3.60
2019-04-11T10:28:39.683Z,3.60
2019-04-11T10:31:14.696Z,3.70
2019-04-11T10:34:07.745Z,4.00
2019-04-11T10:36:49.584Z,4.20
2019-04-11T10:39:57.517Z,4.20
2019-04-11T10:42:32.833Z,4.00
2019-04-11T10:45:31.041Z,4.20
2019-04-11T10:48:05.520Z,4.10
2019-04-11T10:50:58.418Z,4.20
2019-04-11T10:53:31.629Z,4.10
2019-04-11T10:56:19.489Z,4.10
2019-04-11T10:58:57.705Z,4.00
2019-04-11T11:01:48.406Z,3.90
2019-04-11T11:04:29.377Z,3.60
2019-04-11T11:07:06.596Z,3.40
2019-04-11T11:09:50.498Z,3.30
2019-04-11T11:12:35.359Z,3.40
2019-04-11T11:15:17.988Z,3.60
2019-04-11T11:18:45.904Z,4.00
2019-04-11T11:20:55.735Z,4.30
2019-04-11T11:23:43.398Z,4.50
2019-04-11T11:26:24.121Z,4.50
2019-04-11T11:29:15.167Z,4.40
2019-04-11T11:31:52.453Z,4.20
2019-04-11T11:34:44.535Z,3.90
2019-04-11T11:37:33.366Z,4.00
2019-04-11T11:40:42.701Z,4.00
2019-04-11T11:43:27.484Z,4.10
2019-04-11T11:46:30.104Z,4.10
2019-04-11T11:49:10.337Z,4.00
2019-04-11T11:52:00.446Z,3.80
2019-04-11T11:54:33.503Z,3.80
2019-04-11T11:57:10.846Z,4.00
2019-04-11T11:59:50.440Z,4.10
2019-04-11T12:02:35.111Z,4.40
2019-04-11T12:05:18.042Z,4.50
2019-04-11T12:08:12.242Z,4.60
2019-04-11T12:10:53.435Z,4.70
2019-04-11T12:13:45.519Z,4.50
2019-04-11T12:16:36.247Z,4.50
2019-04-11T12:19:43.596Z,4.40
2019-04-11T12:22:06.210Z,4.40
2019-04-11T12:24:45.880Z,4.40
2019-04-11T12:27:28.937Z,4.40
2019-04-11T12:30:23.893Z,4.50
2019-04-11T12:33:14.591Z,4.60
2019-04-11T12:35:59.002Z,4.80
2019-04-11T12:38:47.662Z,4.80
2019-04-11T12:41:33.917Z,5.00
2019-04-11T12:44:26.664Z,5.00
2019-04-11T12:47:17.444Z,5.10
2019-04-11T12:50:09.163Z,4.90
2019-04-11T12:52:58.115Z,5.00
2019-04-11T12:55:50.018Z,4.90
2019-04-11T12:58:33.320Z,5.00
2019-04-11T13:01:22.467Z,5.00
2019-04-11T13:04:15.829Z,5.10
2019-04-11T13:07:12.580Z,5.20
2019-04-11T13:09:52.284Z,5.10
2019-04-11T13:12:41.474Z,5.00
2019-04-11T13:15:32.096Z,4.80
2019-04-11T13:18:20.516Z,4.70
2019-04-11T13:21:02.956Z,4.60
2019-04-11T13:23:53.991Z,4.40
2019-04-11T13:26:44.263Z,4.40
2019-04-11T13:29:35.141Z,4.40
2019-04-11T13:32:25.706Z,4.50
2019-04-11T13:35:03.265Z,4.50
2019-04-11T13:37:53.572Z,4.50
2019-04-11T13:40:40.646Z,4.60
2019-04-11T13:43:25.207Z,4.50
2019-04-11T13:46:03.887Z,4.60
2019-04-11T13:48:55.671Z,4.80
2019-04-11T13:51:59.202Z,4.70
2019-04-11T13:54:57.098Z,4.70
2019-04-11T13:58:00.165Z,4.70
2019-04-11T14:00:52.005Z,4.70
2019-04-11T14:03:48.672Z,4.60
2019-04-11T14:06:41.578Z,4.70
2019-04-11T14:09:40.786Z,4.60
2019-04-11T14:12:16.356Z,4.60
2019-04-11T14:15:01.472Z,4.60
2019-04-11T14:17:53.182Z,4.60
2019-04-11T14:20:47.817Z,4.60
2019-04-11T14:23:45.959Z,4.50
2019-04-11T14:26:37.131Z,4.50
2019-04-11T14:29:43.876Z,4.30
2019-04-11T14:32:29.169Z,3.90
2019-04-11T14:35:24.080Z,3.80
2019-04-11T14:38:03.072Z,3.90
2019-04-11T14:40:45.956Z,3.90
2019-04-11T14:43:39.855Z,4.00
2019-04-11T14:46:28.625Z,4.00
2019-04-11T14:49:05.765Z,3.90
2019-04-11T14:52:00.500Z,4.10
2019-04-11T14:54:43.935Z,4.00
2019-04-11T14:57:46.846Z,3.90
2019-04-11T15:00:41.058Z,4.10
2019-04-11T15:03:38.087Z,4.30
2019-04-11T15:06:22.597Z,3.90
2019-04-11T15:09:25.185Z,3.80
2019-04-11T15:12:27.043Z,3.70
2019-04-11T15:15:24.340Z,3.60
2019-04-11T15:18:00.441Z,3.60
2019-04-11T15:20:54.643Z,3.60
2019-04-11T15:23:26.882Z,3.70
2019-04-11T15:26:18.888Z,3.80
2019-04-11T15:29:09.365Z,3.90
2019-04-11T15:32:19.247Z,3.80
2019-04-11T15:34:57.039Z,3.90
2019-04-11T15:37:48.143Z,4.00
2019-04-11T15:40:31.903Z,3.90
2019-04-11T15:43:42.204Z,4.00
2019-04-11T15:46:22.751Z,3.90
2019-04-11T15:49:20.395Z,3.80
2019-04-11T15:52:09.824Z,3.70
2019-04-11T15:55:16.315Z,3.60
2019-04-11T15:57:55.890Z,3.60
2019-04-11T16:00:52.703Z,3.60
2019-04-11T16:03:29.176Z,3.50
2019-04-11T16:06:34.806Z,3.40
2019-04-11T16:09:11.967Z,3.40
2019-04-11T16:12:03.687Z,3.50
2019-04-11T16:14:42.038Z,3.40
2019-04-11T16:17:34.599Z,3.30
2019-04-11T16:20:23.306Z,3.30
2019-04-11T16:23:18.086Z,3.30
2019-04-11T16:25:56.058Z,3.40
2019-04-11T16:28:48.928Z,3.70
2019-04-11T16:31:19.222Z,3.90
2019-04-11T16:34:15.868Z,4.00
2019-04-11T16:37:02.242Z,3.90
2019-04-11T16:39:56.759Z,3.80
2019-04-11T16:42:54.781Z,3.80
2019-04-11T16:45:47.717Z,3.50
2019-04-11T16:48:25.542Z,3.80
2019-04-11T16:51:00.755Z,4.40
2019-04-11T16:53:41.853Z,4.90
2019-04-11T16:56:16.100Z,4.90
2019-04-11T16:58:50.764Z,4.70
2019-04-11T17:01:23.743Z,4.30
2019-04-11T17:03:55.611Z,3.80
2019-04-11T17:06:49.541Z,3.50
2019-04-11T17:09:47.211Z,3.20
2019-04-11T17:12:17.820Z,3.00
2019-04-11T17:14:48.970Z,2.80
2019-04-11T17:17:21.495Z,2.70
2019-04-11T17:19:55.295Z,2.60
2019-04-11T17:22:28.926Z,2.50
2019-04-11T17:25:02.164Z,2.30
2019-04-11T17:27:35.979Z,2.20
2019-04-11T17:30:11.264Z,2.10
2019-04-11T17:32:45.479Z,2.00
2019-04-11T17:35:20.329Z,1.90
2019-04-11T17:38:12.083Z,1.80
2019-04-11T17:40:50.627Z,1.70
2019-04-11T17:43:23.306Z,1.60
2019-04-11T17:45:59.135Z,1.50
2019-04-11T17:48:31.625Z,1.40
2019-04-11T17:51:10.439Z,1.30
2019-04-11T17:53:43.404Z,1.20
2019-04-11T17:56:25.642Z,1.10
2019-04-11T17:58:57.629Z,1.00
2019-04-11T18:01:30.079Z,0.90
2019-04-11T18:04:03.376Z,0.90
2019-04-11T18:06:38.348Z,0.80
2019-04-11T18:09:16.867Z,0.70
2019-04-11T18:11:55.872Z,0.60
2019-04-11T18:14:30.976Z,0.40
2019-04-11T18:17:04.634Z,0.20
2019-04-11T18:19:36.851Z,0.10
2019-04-11T18:22:13.555Z,0.00
2019-04-11T18:24:50.176Z,-0.20
2019-04-11T18:27:26.193Z,-0.30
2019-04-11T18:30:03.008Z,-0.40
2019-04-11T18:32:34.003Z,-0.50
2019-04-11T18:35:05.537Z,-0.50
2019-04-11T18:37:40.772Z,-0.60
2019-04-11T18:40:13.856Z,-0.70
2019-04-11T18:42:47.200Z,-0.80
2019-04-11T18:45:22.819Z,-0.80
2019-04-11T18:47:56.880Z,-0.90
2019-04-11T18:50:28.910Z,-1.00
2019-04-11T18:53:05.739Z,-1.10
2019-04-11T18:55:38.479Z,-1.10
2019-04-11T18:58:13.471Z,-1.20
2019-04-11T19:00:50.820Z,-1.20
2019-04-11T19:03:35.719Z,-1.30
2019-04-11T19:06:13.108Z,-1.40
2019-04-11T19:08:47.594Z,-1.40
2019-04-11T19:11:22.529Z,-1.50
2019-04-11T19:13:58.372Z,-1.50
2019-04-11T19:16:31.327Z,-1.50
2019-04-11T19:19:05.377Z,-1.60
2019-04-11T19:21:41.507Z,-1.70
2019-04-11T19:24:14.575Z,-1.80
2019-04-11T19:26:46.366Z,-1.90
2019-04-11T19:29:24.791Z,-2.00
2019-04-11T19:31:54.540Z,-2.00
2019-04-11T19:34:31.320Z,-2.10
2019-04-11T19:37:07.336Z,-2.20
2019-04-11T19:39:45.139Z,-2.30
2019-04-11T19:42:19.883Z,-2.30
2019-04-11T19:44:54.574Z,-2.30
2019-04-11T19:47:29.729Z,-2.40
2019-04-11T19:50:01.950Z,-2.30
2019-04-11T19:52:45.313Z,-2.30
2019-04-11T19:55:52.320Z,-2.30
2019-04-11T19:58:27.819Z,-2.40
2019-04-11T20:01:00.193Z,-2.40
2019-04-11T20:03:32.960Z,-2.40
2019-04-11T20:06:09.574Z,-2.40
2019-04-11T20:08:43.145Z,-2.50
2019-04-11T20:11:14.807Z,-2.50
2019-04-11T20:13:48.982Z,-2.50
2019-04-11T20:16:22.590Z,-2.60
2019-04-11T20:18:58.608Z,-2.60
2019-04-11T20:21:37.846Z,-2.60
2019-04-11T20:24:13.832Z,-2.70
2019-04-11T20:26:45.487Z,-2.70
2019-04-11T20:29:18.887Z,-2.80
2019-04-11T20:31:58.144Z,-2.80
2019-04-11T20:34:32.942Z,-2.90
2019-04-11T20:37:12.631Z,-3.00
2019-04-11T20:39:46.277Z,-3.10
2019-04-11T20:42:17.218Z,-3.20
2019-04-11T20:44:48.454Z,-3.30
2019-04-11T20:47:24.458Z,-3.30
2019-04-11T20:49:55.097Z,-3.30
2019-04-11T20:52:29.931Z,-3.40
2019-04-11T20:55:08.942Z,-3.30
2019-04-11T20:57:40.436Z,-3.30
2019-04-11T21:00:12.428Z,-3.40
2019-04-11T21:02:50.323Z,-3.40
2019-04-11T21:05:30.784Z,-3.40
2019-04-11T21:08:02.989Z,-3.50
2019-04-11T21:10:34.050Z,-3.50
2019-04-11T21:13:06.887Z,-3.50
2019-04-11T21:15:41.611Z,-3.60
2019-04-11T21:18:14.083Z,-3.60
2019-04-11T21:20:49.176Z,-3.70
2019-04-11T21:23:24.576Z,-3.70
2019-04-11T21:25:59.120Z,-3.70
2019-04-11T21:28:35.142Z,-3.70
2019-04-11T21:31:08.909Z,-3.70
2019-04-11T21:33:44.512Z,-3.80
2019-04-11T21:36:19.923Z,-3.90
2019-04-11T21:38:58.792Z,-3.90
2019-04-11T21:41:36.071Z,-4.00
2019-04-11T21:44:10.795Z,-4.00
2019-04-11T21:46:43.181Z,-4.10
2019-04-11T21:49:21.335Z,-4.10
2019-04-11T21:51:55.267Z,-4.10
2019-04-11T21:54:25.803Z,-4.10
2019-04-11T21:56:56.428Z,-4.20
2019-04-11T21:59:28.555Z,-4.20
2019-04-11T22:02:05.316Z,-4.30
2019-04-11T22:04:40.191Z,-4.30
2019-04-11T22:07:13.407Z,-4.30
2019-04-11T22:09:43.702Z,-4.40
2019-04-11T22:12:17.571Z,-4.40
2019-04-11T22:14:52.639Z,-4.50
2019-04-11T22:17:33.176Z,-4.60
2019-04-11T22:20:09.447Z,-4.60
2019-04-11T22:22:39.522Z,-4.60
2019-04-11T22:25:10.155Z,-4.70
2019-04-11T22:27:40.192Z,-4.70
2019-04-11T22:30:12.099Z,-4.70
2019-04-11T22:32:51.760Z,-4.70
2019-04-11T22:35:24.268Z,-4.70
2019-04-11T22:37:54.709Z,-4.70
2019-04-11T22:40:31.582Z,-4.70
2019-04-11T22:43:07.314Z,-4.80
2019-04-11T22:45:37.921Z,-4.80
2019-04-11T22:48:09.373Z,-4.90
2019-04-11T22:50:40.639Z,-4.90
2019-04-11T22:53:15.071Z,-5.00
2019-04-11T22:55:49.893Z,-5.10
2019-04-11T22:58:24.035Z,-5.10
2019-04-11T23:00:59.241Z,-5.10
2019-04-11T23:03:38.778Z,-5.20
2019-04-11T23:06:12.040Z,-5.30
2019-04-11T23:08:48.909Z,-5.30
2019-04-11T23:11:19.074Z,-5.30
2019-04-11T23:13:48.754Z,-5.30
2019-04-11T23:16:20.804Z,-5.40
2019-04-11T23:18:53.670Z,-5.40
2019-04-11T23:21:27.559Z,-5.40
2019-04-11T23:24:12.007Z,-5.50
2019-04-11T23:26:45.247Z,-5.50
2019-04-11T23:29:16.166Z,-5.50
2019-04-11T23:31:51.321Z,-5.50
2019-04-11T23:34:22.762Z,-5.60
2019-04-11T23:36:55.338Z,-5.60
2019-04-11T23:39:29.319Z,-5.70
2019-04-11T23:42:01.191Z,-5.70
2019-04-11T23:44:35.916Z,-5.70
2019-04-11T23:47:09.765Z,-5.70
2019-04-11T23:49:44.132Z,-5.80
2019-04-11T23:52:16.819Z,-5.90
2019-04-11T23:54:47.266Z,-5.90
2019-04-11T23:57:18.935Z,-5.90
2019-04-11T23:59:53.038Z,-5.90
